sensor_id;sensor_type;location;lat;lon;timestamp;pressure;altitude;pressure_sealevel;temperature;humidity
61318;BME280;47201;40.428;-8.436;2023-03-25T00:00:10;101432.16;;;9.07;100.00
61318;BME280;47201;40.428;-8.436;2023-03-25T00:02:37;101428.53;;;8.99;100.00
61318;BME280;47201;40.428;-8.436;2023-03-25T00:04:56;101431.84;;;8.88;100.00
61318;BME280;47201;40.428;-8.436;2023-03-25T00:07:00;101433.44;;;8.80;100.00
61318;BME280;47201;40.428;-8.436;2023-03-25T00:09:00;101430.59;;;8.66;100.00
61318;BME280;47201;40.428;-8.436;2023-03-25T00:11:03;101426.84;;;8.52;100.00
61318;BME280;47201;40.428;-8.436;2023-03-25T00:13:04;101429.13;;;8.36;100.00
61318;BME280;47201;40.428;-8.436;2023-03-25T00:15:24;101422.03;;;8.28;100.00
61318;BME280;47201;40.428;-8.436;2023-03-25T00:17:43;101424.47;;;8.20;100.00
61318;BME280;47201;40.428;-8.436;2023-03-25T00:20:02;101426.09;;;8.15;100.00
61318;BME280;47201;40.428;-8.436;2023-03-25T00:22:29;101441.59;;;8.07;100.00
61318;BME280;47201;40.428;-8.436;2023-03-25T00:24:49;101446.59;;;7.96;100.00
61318;BME280;47201;40.428;-8.436;2023-03-25T00:26:51;101450.75;;;7.88;100.00
61318;BME280;47201;40.428;-8.436;2023-03-25T00:28:54;101451.47;;;7.81;100.00
61318;BME280;47201;40.428;-8.436;2023-03-25T00:31:14;101439.94;;;7.71;100.00
61318;BME280;47201;40.428;-8.436;2023-03-25T00:33:36;101440.88;;;7.74;100.00
61318;BME280;47201;40.428;-8.436;2023-03-25T00:35:40;101440.44;;;7.92;100.00
61318;BME280;47201;40.428;-8.436;2023-03-25T00:37:45;101431.84;;;7.98;100.00
61318;BME280;47201;40.428;-8.436;2023-03-25T00:39:47;101433.69;;;8.02;100.00
61318;BME280;47201;40.428;-8.436;2023-03-25T00:41:47;101435.50;;;8.06;100.00
61318;BME280;47201;40.428;-8.436;2023-03-25T00:43:48;101431.31;;;8.15;100.00
61318;BME280;47201;40.428;-8.436;2023-03-25T00:46:07;101433.16;;;8.19;100.00
61318;BME280;47201;40.428;-8.436;2023-03-25T00:48:08;101419.19;;;8.15;100.00
61318;BME280;47201;40.428;-8.436;2023-03-25T00:50:27;101425.06;;;8.06;100.00
61318;BME280;47201;40.428;-8.436;2023-03-25T00:52:32;101418.19;;;8.08;100.00
61318;BME280;47201;40.428;-8.436;2023-03-25T00:54:33;101415.88;;;8.24;100.00
61318;BME280;47201;40.428;-8.436;2023-03-25T00:56:36;101412.53;;;8.30;100.00
61318;BME280;47201;40.428;-8.436;2023-03-25T00:58:37;101415.34;;;8.40;100.00
61318;BME280;47201;40.428;-8.436;2023-03-25T01:00:56;101409.50;;;8.52;100.00
61318;BME280;47201;40.428;-8.436;2023-03-25T01:02:56;101412.88;;;8.47;100.00
61318;BME280;47201;40.428;-8.436;2023-03-25T01:05:15;101407.38;;;8.34;100.00
61318;BME280;47201;40.428;-8.436;2023-03-25T01:07:36;101412.38;;;8.22;100.00
61318;BME280;47201;40.428;-8.436;2023-03-25T01:09:55;101409.78;;;8.23;100.00
61318;BME280;47201;40.428;-8.436;2023-03-25T01:12:15;101410.56;;;8.18;100.00
61318;BME280;47201;40.428;-8.436;2023-03-25T01:14:21;101413.19;;;8.19;100.00
61318;BME280;47201;40.428;-8.436;2023-03-25T01:16:23;101419.44;;;8.28;100.00
61318;BME280;47201;40.428;-8.436;2023-03-25T01:18:23;101417.03;;;8.40;100.00
61318;BME280;47201;40.428;-8.436;2023-03-25T01:20:25;101418.88;;;8.44;100.00
61318;BME280;47201;40.428;-8.436;2023-03-25T01:22:44;101420.53;;;8.40;100.00
61318;BME280;47201;40.428;-8.436;2023-03-25T01:25:06;101417.88;;;8.39;100.00
61318;BME280;47201;40.428;-8.436;2023-03-25T01:27:07;101406.59;;;8.37;100.00
61318;BME280;47201;40.428;-8.436;2023-03-25T01:29:26;101409.22;;;8.38;100.00
61318;BME280;47201;40.428;-8.436;2023-03-25T01:31:45;101398.69;;;8.34;100.00
61318;BME280;47201;40.428;-8.436;2023-03-25T01:34:08;101397.22;;;8.47;100.00
61318;BME280;47201;40.428;-8.436;2023-03-25T01:36:09;101393.94;;;8.57;100.00
61318;BME280;47201;40.428;-8.436;2023-03-25T01:38:11;101394.09;;;8.66;100.00
61318;BME280;47201;40.428;-8.436;2023-03-25T01:40:31;101396.19;;;8.86;100.00
61318;BME280;47201;40.428;-8.436;2023-03-25T01:42:31;101386.63;;;8.88;100.00
61318;BME280;47201;40.428;-8.436;2023-03-25T01:46:51;101387.34;;;8.78;100.00
61318;BME280;47201;40.428;-8.436;2023-03-25T01:49:44;101388.03;;;8.66;100.00
61318;BME280;47201;40.428;-8.436;2023-03-25T01:52:02;101392.03;;;8.47;100.00
61318;BME280;47201;40.428;-8.436;2023-03-25T01:54:22;101392.69;;;8.38;100.00
61318;BME280;47201;40.428;-8.436;2023-03-25T01:56:27;101391.75;;;8.34;100.00
61318;BME280;47201;40.428;-8.436;2023-03-25T01:58:49;101388.16;;;8.26;100.00
61318;BME280;47201;40.428;-8.436;2023-03-25T02:00:51;101385.34;;;8.17;100.00
61318;BME280;47201;40.428;-8.436;2023-03-25T02:02:55;101387.00;;;8.12;100.00
61318;BME280;47201;40.428;-8.436;2023-03-25T02:05:23;101386.19;;;8.16;100.00
61318;BME280;47201;40.428;-8.436;2023-03-25T02:07:27;101387.03;;;8.13;100.00
61318;BME280;47201;40.428;-8.436;2023-03-25T02:09:48;101382.53;;;8.06;100.00
61318;BME280;47201;40.428;-8.436;2023-03-25T02:12:08;101379.03;;;8.04;100.00
61318;BME280;47201;40.428;-8.436;2023-03-25T02:14:10;101381.59;;;8.02;100.00
61318;BME280;47201;40.428;-8.436;2023-03-25T02:23:44;101372.59;;;7.86;100.00
61318;BME280;47201;40.428;-8.436;2023-03-25T02:26:26;101377.75;;;7.83;100.00
61318;BME280;47201;40.428;-8.436;2023-03-25T02:28:57;101375.88;;;7.76;100.00
61318;BME280;47201;40.428;-8.436;2023-03-25T02:31:09;101374.84;;;7.69;100.00
61318;BME280;47201;40.428;-8.436;2023-03-25T02:37:56;101369.44;;;8.01;100.00
61318;BME280;47201;40.428;-8.436;2023-03-25T02:40:21;101359.94;;;8.03;100.00
61318;BME280;47201;40.428;-8.436;2023-03-25T02:44:31;101353.84;;;8.04;100.00
61318;BME280;47201;40.428;-8.436;2023-03-25T02:46:35;101355.59;;;8.05;100.00
61318;BME280;47201;40.428;-8.436;2023-03-25T02:48:45;101350.31;;;8.01;100.00
61318;BME280;47201;40.428;-8.436;2023-03-25T02:50:51;101341.53;;;7.94;100.00
61318;BME280;47201;40.428;-8.436;2023-03-25T02:53:02;101333.63;;;7.89;100.00
61318;BME280;47201;40.428;-8.436;2023-03-25T02:55:06;101333.75;;;7.97;100.00
61318;BME280;47201;40.428;-8.436;2023-03-25T02:57:11;101332.78;;;7.92;100.00
61318;BME280;47201;40.428;-8.436;2023-03-25T02:59:13;101327.56;;;7.90;100.00
61318;BME280;47201;40.428;-8.436;2023-03-25T03:01:14;101331.00;;;7.88;100.00
61318;BME280;47201;40.428;-8.436;2023-03-25T03:03:33;101326.56;;;7.84;100.00
61318;BME280;47201;40.428;-8.436;2023-03-25T03:05:39;101329.97;;;7.80;100.00
61318;BME280;47201;40.428;-8.436;2023-03-25T03:07:43;101324.66;;;7.75;100.00
61318;BME280;47201;40.428;-8.436;2023-03-25T03:09:48;101335.84;;;7.71;100.00
61318;BME280;47201;40.428;-8.436;2023-03-25T03:14:14;101333.06;;;7.61;100.00
61318;BME280;47201;40.428;-8.436;2023-03-25T03:18:54;101332.22;;;7.62;100.00
61318;BME280;47201;40.428;-8.436;2023-03-25T03:20:59;101336.63;;;7.67;100.00
61318;BME280;47201;40.428;-8.436;2023-03-25T03:23:29;101343.66;;;7.71;100.00
61318;BME280;47201;40.428;-8.436;2023-03-25T03:25:59;101345.31;;;7.67;100.00
61318;BME280;47201;40.428;-8.436;2023-03-25T03:28:09;101340.81;;;7.60;100.00
61318;BME280;47201;40.428;-8.436;2023-03-25T03:32:38;101333.88;;;7.59;100.00
61318;BME280;47201;40.428;-8.436;2023-03-25T03:35:03;101335.84;;;7.71;100.00
61318;BME280;47201;40.428;-8.436;2023-03-25T03:37:30;101325.31;;;7.65;100.00
61318;BME280;47201;40.428;-8.436;2023-03-25T03:39:34;101327.78;;;7.58;100.00
61318;BME280;47201;40.428;-8.436;2023-03-25T03:41:55;101329.66;;;7.64;100.00
61318;BME280;47201;40.428;-8.436;2023-03-25T03:43:58;101333.06;;;7.61;100.00
61318;BME280;47201;40.428;-8.436;2023-03-25T03:46:26;101333.81;;;7.56;100.00
61318;BME280;47201;40.428;-8.436;2023-03-25T03:48:35;101348.38;;;7.47;100.00
61318;BME280;47201;40.428;-8.436;2023-03-25T03:50:38;101343.03;;;7.40;100.00
61318;BME280;47201;40.428;-8.436;2023-03-25T03:55:09;101341.16;;;7.34;100.00
61318;BME280;47201;40.428;-8.436;2023-03-25T03:57:21;101336.91;;;7.38;100.00
61318;BME280;47201;40.428;-8.436;2023-03-25T04:01:39;101325.38;;;7.68;100.00
61318;BME280;47201;40.428;-8.436;2023-03-25T04:04:04;101330.72;;;7.74;100.00
61318;BME280;47201;40.428;-8.436;2023-03-25T04:06:14;101320.19;;;7.69;100.00
61318;BME280;47201;40.428;-8.436;2023-03-25T04:08:36;101321.75;;;7.61;100.00
61318;BME280;47201;40.428;-8.436;2023-03-25T04:11:01;101324.38;;;7.61;100.00
61318;BME280;47201;40.428;-8.436;2023-03-25T04:13:23;101323.00;;;7.78;100.00
61318;BME280;47201;40.428;-8.436;2023-03-25T04:15:43;101315.72;;;8.06;100.00
61318;BME280;47201;40.428;-8.436;2023-03-25T04:17:44;101309.25;;;8.33;100.00
61318;BME280;47201;40.428;-8.436;2023-03-25T04:19:47;101311.28;;;8.50;100.00
61318;BME280;47201;40.428;-8.436;2023-03-25T04:21:48;101307.16;;;8.63;100.00
61318;BME280;47201;40.428;-8.436;2023-03-25T04:23:48;101310.78;;;8.72;100.00
61318;BME280;47201;40.428;-8.436;2023-03-25T04:25:49;101303.97;;;8.81;100.00
61318;BME280;47201;40.428;-8.436;2023-03-25T04:27:52;101297.97;;;8.86;100.00
61318;BME280;47201;40.428;-8.436;2023-03-25T04:29:58;101301.50;;;8.92;100.00
61318;BME280;47201;40.428;-8.436;2023-03-25T04:32:19;101306.72;;;8.92;100.00
61318;BME280;47201;40.428;-8.436;2023-03-25T04:34:19;101300.72;;;8.97;100.00
61318;BME280;47201;40.428;-8.436;2023-03-25T04:36:38;101295.56;;;9.00;100.00
61318;BME280;47201;40.428;-8.436;2023-03-25T04:38:59;101286.03;;;9.02;100.00
61318;BME280;47201;40.428;-8.436;2023-03-25T04:41:00;101295.56;;;9.00;100.00
61318;BME280;47201;40.428;-8.436;2023-03-25T04:43:00;101292.00;;;8.95;100.00
61318;BME280;47201;40.428;-8.436;2023-03-25T04:45:01;101290.25;;;8.94;100.00
61318;BME280;47201;40.428;-8.436;2023-03-25T04:47:22;101286.69;;;8.89;100.00
61318;BME280;47201;40.428;-8.436;2023-03-25T04:49:42;101291.13;;;8.93;100.00
61318;BME280;47201;40.428;-8.436;2023-03-25T04:51:44;101291.28;;;9.04;100.00
61318;BME280;47201;40.428;-8.436;2023-03-25T04:54:03;101292.28;;;9.14;100.00
61318;BME280;47201;40.428;-8.436;2023-03-25T04:56:22;101291.50;;;9.21;100.00
61318;BME280;47201;40.428;-8.436;2023-03-25T04:58:41;101287.22;;;9.26;100.00
61318;BME280;47201;40.428;-8.436;2023-03-25T05:00:43;101287.22;;;9.28;100.00
61318;BME280;47201;40.428;-8.436;2023-03-25T05:02:44;101286.34;;;9.26;100.00
61318;BME280;47201;40.428;-8.436;2023-03-25T05:05:04;101278.47;;;9.21;100.00
61318;BME280;47201;40.428;-8.436;2023-03-25T05:07:04;101271.44;;;9.17;100.00
61318;BME280;47201;40.428;-8.436;2023-03-25T05:09:23;101281.75;;;9.08;100.00
61318;BME280;47201;40.428;-8.436;2023-03-25T05:11:24;101275.66;;;9.07;100.00
61318;BME280;47201;40.428;-8.436;2023-03-25T05:13:44;101275.66;;;9.09;100.00
61318;BME280;47201;40.428;-8.436;2023-03-25T05:15:46;101279.13;;;9.06;100.00
61318;BME280;47201;40.428;-8.436;2023-03-25T05:17:46;101276.47;;;9.03;100.00
61318;BME280;47201;40.428;-8.436;2023-03-25T05:19:47;101280.84;;;9.04;100.00
61318;BME280;47201;40.428;-8.436;2023-03-25T05:22:06;101289.44;;;8.98;100.00
61318;BME280;47201;40.428;-8.436;2023-03-25T05:24:26;101297.19;;;8.92;100.00
61318;BME280;47201;40.428;-8.436;2023-03-25T05:26:28;101302.41;;;8.92;100.00
61318;BME280;47201;40.428;-8.436;2023-03-25T05:28:36;101298.03;;;8.89;100.00
61318;BME280;47201;40.428;-8.436;2023-03-25T05:30:36;101299.75;;;8.89;100.00
61318;BME280;47201;40.428;-8.436;2023-03-25T05:32:38;101300.56;;;8.85;100.00
61318;BME280;47201;40.428;-8.436;2023-03-25T05:34:40;101294.44;;;8.83;100.00
61318;BME280;47201;40.428;-8.436;2023-03-25T05:36:40;101303.09;;;8.82;100.00
61318;BME280;47201;40.428;-8.436;2023-03-25T05:38:41;101302.13;;;8.73;100.00
61318;BME280;47201;40.428;-8.436;2023-03-25T05:41:01;101304.72;;;8.73;100.00
61318;BME280;47201;40.428;-8.436;2023-03-25T05:43:20;101300.34;;;8.72;100.00
61318;BME280;47201;40.428;-8.436;2023-03-25T05:45:22;101297.72;;;8.69;100.00
61318;BME280;47201;40.428;-8.436;2023-03-25T05:47:23;101301.16;;;8.68;100.00
61318;BME280;47201;40.428;-8.436;2023-03-25T05:49:24;101297.63;;;8.65;100.00
61318;BME280;47201;40.428;-8.436;2023-03-25T05:51:25;101290.69;;;8.65;100.00
61318;BME280;47201;40.428;-8.436;2023-03-25T05:53:25;101294.09;;;8.60;100.00
61318;BME280;47201;40.428;-8.436;2023-03-25T05:55:26;101291.41;;;8.55;100.00
61318;BME280;47201;40.428;-8.436;2023-03-25T05:57:46;101299.88;;;8.45;100.00
61318;BME280;47201;40.428;-8.436;2023-03-25T06:00:05;101294.56;;;8.38;100.00
61318;BME280;47201;40.428;-8.436;2023-03-25T06:02:26;101297.09;;;8.32;100.00
61318;BME280;47201;40.428;-8.436;2023-03-25T06:04:27;101298.72;;;8.27;100.00
61318;BME280;47201;40.428;-8.436;2023-03-25T06:06:46;101296.91;;;8.23;100.00
61318;BME280;47201;40.428;-8.436;2023-03-25T06:09:06;101295.03;;;8.14;100.00
61318;BME280;47201;40.428;-8.436;2023-03-25T06:11:07;101301.06;;;8.12;100.00
61318;BME280;47201;40.428;-8.436;2023-03-25T06:13:27;101306.97;;;8.03;100.00
61318;BME280;47201;40.428;-8.436;2023-03-25T06:15:46;101312.16;;;8.03;100.00
61318;BME280;47201;40.428;-8.436;2023-03-25T06:17:47;101310.38;;;8.00;100.00
61318;BME280;47201;40.428;-8.436;2023-03-25T06:19:49;101313.06;;;8.03;100.00
61318;BME280;47201;40.428;-8.436;2023-03-25T06:21:49;101313.19;;;8.09;100.00
61318;BME280;47201;40.428;-8.436;2023-03-25T06:24:09;101307.97;;;8.11;100.00
61318;BME280;47201;40.428;-8.436;2023-03-25T06:26:28;101301.06;;;8.12;100.00
61318;BME280;47201;40.428;-8.436;2023-03-25T06:28:29;101297.53;;;8.09;100.00
61318;BME280;47201;40.428;-8.436;2023-03-25T06:30:48;101307.13;;;8.12;100.00
61318;BME280;47201;40.428;-8.436;2023-03-25T06:32:50;101309.84;;;8.17;100.00
61318;BME280;47201;40.428;-8.436;2023-03-25T06:35:14;101307.22;;;8.17;100.00
61318;BME280;47201;40.428;-8.436;2023-03-25T06:37:37;101308.06;;;8.16;100.00
61318;BME280;47201;40.428;-8.436;2023-03-25T06:39:56;101308.06;;;8.16;100.00
61318;BME280;47201;40.428;-8.436;2023-03-25T06:41:59;101306.28;;;8.13;100.00
61318;BME280;47201;40.428;-8.436;2023-03-25T06:44:14;101307.16;;;8.14;100.00
61318;BME280;47201;40.428;-8.436;2023-03-25T06:46:34;101298.50;;;8.15;100.00
61318;BME280;47201;40.428;-8.436;2023-03-25T06:48:54;101309.88;;;8.20;100.00
61318;BME280;47201;40.428;-8.436;2023-03-25T06:50:55;101328.19;;;8.24;100.00
61318;BME280;47201;40.428;-8.436;2023-03-25T06:53:15;101329.13;;;8.28;100.00
61318;BME280;47201;40.428;-8.436;2023-03-25T06:55:35;101328.28;;;8.29;100.00
61318;BME280;47201;40.428;-8.436;2023-03-25T06:57:35;101331.97;;;8.42;100.00
61318;BME280;47201;40.428;-8.436;2023-03-25T06:59:37;101329.25;;;8.85;100.00
61318;BME280;47201;40.428;-8.436;2023-03-25T07:01:57;101330.88;;;9.40;100.00
61318;BME280;47201;40.428;-8.436;2023-03-25T07:04:16;101338.41;;;9.86;100.00
61318;BME280;47201;40.428;-8.436;2023-03-25T07:06:17;101338.00;;;10.30;100.00
61318;BME280;47201;40.428;-8.436;2023-03-25T07:08:36;101339.31;;;10.80;100.00
61318;BME280;47201;40.428;-8.436;2023-03-25T07:10:37;101343.09;;;11.19;100.00
61318;BME280;47201;40.428;-8.436;2023-03-25T07:12:38;101339.84;;;11.61;100.00
61318;BME280;47201;40.428;-8.436;2023-03-25T07:14:39;101343.41;;;11.95;100.00
61318;BME280;47201;40.428;-8.436;2023-03-25T07:16:40;101345.25;;;12.10;100.00
61318;BME280;47201;40.428;-8.436;2023-03-25T07:18:59;101341.81;;;12.53;100.00
61318;BME280;47201;40.428;-8.436;2023-03-25T07:21:18;101347.91;;;13.01;100.00
61318;BME280;47201;40.428;-8.436;2023-03-25T07:23:19;101356.66;;;13.08;100.00
61318;BME280;47201;40.428;-8.436;2023-03-25T07:25:19;101349.63;;;13.27;100.00
61318;BME280;47201;40.428;-8.436;2023-03-25T07:27:39;101346.00;;;13.72;98.93
61318;BME280;47201;40.428;-8.436;2023-03-25T07:29:46;101358.94;;;14.07;95.94
61318;BME280;47201;40.428;-8.436;2023-03-25T07:32:05;101360.69;;;14.15;93.59
61318;BME280;47201;40.428;-8.436;2023-03-25T07:34:25;101359.91;;;13.92;95.17
61318;BME280;47201;40.428;-8.436;2023-03-25T07:36:25;101346.75;;;13.94;95.53
61318;BME280;47201;40.428;-8.436;2023-03-25T07:38:44;101345.72;;;14.23;93.20
61318;BME280;47201;40.428;-8.436;2023-03-25T07:40:45;101351.53;;;14.71;90.39
61318;BME280;47201;40.428;-8.436;2023-03-25T07:42:47;101358.94;;;15.24;86.26
61318;BME280;47201;40.428;-8.436;2023-03-25T07:44:47;101360.97;;;15.75;81.52
61318;BME280;47201;40.428;-8.436;2023-03-25T07:47:06;101362.94;;;16.28;77.94
61318;BME280;47201;40.428;-8.436;2023-03-25T07:49:07;101358.94;;;16.60;75.21
61318;BME280;47201;40.428;-8.436;2023-03-25T07:51:07;101353.16;;;16.89;74.23
61318;BME280;47201;40.428;-8.436;2023-03-25T07:53:27;101362.69;;;17.47;70.96
61318;BME280;47201;40.428;-8.436;2023-03-25T07:55:46;101359.19;;;17.88;67.65
61318;BME280;47201;40.428;-8.436;2023-03-25T07:57:50;101369.75;;;17.88;66.63
61318;BME280;47201;40.428;-8.436;2023-03-25T07:59:51;101368.69;;;17.99;66.06
61318;BME280;47201;40.428;-8.436;2023-03-25T08:01:51;101366.06;;;18.36;65.40
61318;BME280;47201;40.428;-8.436;2023-03-25T08:04:11;101365.84;;;18.82;63.60
61318;BME280;47201;40.428;-8.436;2023-03-25T08:06:31;101364.06;;;19.18;61.20
61318;BME280;47201;40.428;-8.436;2023-03-25T08:08:51;101365.09;;;19.13;61.09
61318;BME280;47201;40.428;-8.436;2023-03-25T08:11:10;101363.66;;;19.34;60.14
61318;BME280;47201;40.428;-8.436;2023-03-25T08:13:11;101352.03;;;19.38;60.39
61318;BME280;47201;40.428;-8.436;2023-03-25T08:15:12;101361.94;;;19.31;60.42
61318;BME280;47201;40.428;-8.436;2023-03-25T08:17:31;101347.91;;;19.59;59.82
61318;BME280;47201;40.428;-8.436;2023-03-25T08:19:51;101356.25;;;19.75;59.24
61318;BME280;47201;40.428;-8.436;2023-03-25T08:22:10;101349.50;;;20.25;58.58
61318;BME280;47201;40.428;-8.436;2023-03-25T08:24:30;101355.97;;;20.98;56.73
61318;BME280;47201;40.428;-8.436;2023-03-25T08:26:31;101364.91;;;21.21;56.13
61318;BME280;47201;40.428;-8.436;2023-03-25T08:28:36;101372.38;;;21.10;55.87
61318;BME280;47201;40.428;-8.436;2023-03-25T08:30:37;101372.44;;;20.83;56.91
61318;BME280;47201;40.428;-8.436;2023-03-25T08:32:37;101372.31;;;21.11;57.68
61318;BME280;47201;40.428;-8.436;2023-03-25T08:34:39;101378.97;;;20.99;58.03
61318;BME280;47201;40.428;-8.436;2023-03-25T08:36:40;101385.47;;;21.16;57.51
61318;BME280;47201;40.428;-8.436;2023-03-25T08:38:41;101373.25;;;20.85;59.23
61318;BME280;47201;40.428;-8.436;2023-03-25T08:40:42;101383.91;;;20.83;59.19
61318;BME280;47201;40.428;-8.436;2023-03-25T08:42:43;101386.91;;;20.44;61.38
61318;BME280;47201;40.428;-8.436;2023-03-25T08:44:44;101384.50;;;20.09;62.93
61318;BME280;47201;40.428;-8.436;2023-03-25T08:46:44;101396.84;;;19.79;65.60
61318;BME280;47201;40.428;-8.436;2023-03-25T08:49:07;101388.34;;;19.66;65.33
61318;BME280;47201;40.428;-8.436;2023-03-25T08:51:25;101393.06;;;19.56;65.60
61318;BME280;47201;40.428;-8.436;2023-03-25T08:53:45;101384.53;;;19.76;64.96
61318;BME280;47201;40.428;-8.436;2023-03-25T08:55:45;101390.63;;;19.48;65.91
61318;BME280;47201;40.428;-8.436;2023-03-25T08:57:46;101394.00;;;20.17;64.21
61318;BME280;47201;40.428;-8.436;2023-03-25T08:59:46;101396.97;;;20.63;61.50
61318;BME280;47201;40.428;-8.436;2023-03-25T09:02:05;101387.97;;;20.67;61.75
61318;BME280;47201;40.428;-8.436;2023-03-25T09:04:06;101400.41;;;21.20;59.98
61318;BME280;47201;40.428;-8.436;2023-03-25T09:06:07;101399.03;;;21.59;59.00
61318;BME280;47201;40.428;-8.436;2023-03-25T09:08:08;101405.13;;;21.86;58.74
61318;BME280;47201;40.428;-8.436;2023-03-25T09:10:08;101396.00;;;22.15;57.58
61318;BME280;47201;40.428;-8.436;2023-03-25T09:12:27;101401.69;;;22.52;57.46
61318;BME280;47201;40.428;-8.436;2023-03-25T09:14:28;101403.28;;;22.78;57.50
61318;BME280;47201;40.428;-8.436;2023-03-25T09:16:29;101396.94;;;22.81;58.43
61318;BME280;47201;40.428;-8.436;2023-03-25T09:18:30;101390.22;;;22.28;60.83
61318;BME280;47201;40.428;-8.436;2023-03-25T09:20:31;101390.88;;;22.77;60.54
61318;BME280;47201;40.428;-8.436;2023-03-25T09:22:32;101377.91;;;23.52;58.26
61318;BME280;47201;40.428;-8.436;2023-03-25T09:24:32;101383.88;;;24.16;56.63
61318;BME280;47201;40.428;-8.436;2023-03-25T09:26:35;101380.53;;;24.67;56.21
61318;BME280;47201;40.428;-8.436;2023-03-25T09:28:36;101378.91;;;24.82;56.49
61318;BME280;47201;40.428;-8.436;2023-03-25T09:30:37;101393.53;;;24.75;58.45
61318;BME280;47201;40.428;-8.436;2023-03-25T09:32:56;101401.38;;;25.30;57.49
61318;BME280;47201;40.428;-8.436;2023-03-25T09:34:56;101403.28;;;25.62;57.30
61318;BME280;47201;40.428;-8.436;2023-03-25T09:36:57;101408.06;;;25.22;58.44
61318;BME280;47201;40.428;-8.436;2023-03-25T09:38:58;101406.91;;;24.55;61.97
61318;BME280;47201;40.428;-8.436;2023-03-25T09:40:59;101396.41;;;24.14;63.77
61318;BME280;47201;40.428;-8.436;2023-03-25T09:45:41;101417.84;;;24.32;64.42
61318;BME280;47201;40.428;-8.436;2023-03-25T09:47:47;101409.28;;;24.06;65.68
61318;BME280;47201;40.428;-8.436;2023-03-25T09:50:11;101410.94;;;24.64;65.10
61318;BME280;47201;40.428;-8.436;2023-03-25T09:52:15;101411.94;;;24.81;65.00
61318;BME280;47201;40.428;-8.436;2023-03-25T09:54:37;101405.91;;;25.28;63.68
61318;BME280;47201;40.428;-8.436;2023-03-25T09:56:40;101412.78;;;25.52;63.70
61318;BME280;47201;40.428;-8.436;2023-03-25T09:58:43;101412.56;;;25.39;63.98
61318;BME280;47201;40.428;-8.436;2023-03-25T10:00:45;101413.91;;;25.30;65.16
61318;BME280;47201;40.428;-8.436;2023-03-25T10:05:31;101412.56;;;25.03;66.07
61318;BME280;47201;40.428;-8.436;2023-03-25T10:13:01;101415.56;;;25.50;67.12
61318;BME280;47201;40.428;-8.436;2023-03-25T10:26:43;101423.78;;;28.64;62.41
61318;BME280;47201;40.428;-8.436;2023-03-25T10:29:09;101421.84;;;28.67;61.97
61318;BME280;47201;40.428;-8.436;2023-03-25T10:31:14;101427.97;;;28.69;63.06
61318;BME280;47201;40.428;-8.436;2023-03-25T10:35:46;101430.53;;;26.98;67.20
61318;BME280;47201;40.428;-8.436;2023-03-25T10:37:48;101416.19;;;27.14;67.36
61318;BME280;47201;40.428;-8.436;2023-03-25T10:40:18;101417.97;;;28.43;63.85
61318;BME280;47201;40.428;-8.436;2023-03-25T10:42:26;101422.13;;;29.55;61.65
61318;BME280;47201;40.428;-8.436;2023-03-25T10:44:46;101422.09;;;29.68;61.66
61318;BME280;47201;40.428;-8.436;2023-03-25T10:49:06;101409.50;;;29.17;62.55
61318;BME280;47201;40.428;-8.436;2023-03-25T10:51:31;101411.28;;;28.91;64.28
61318;BME280;47201;40.428;-8.436;2023-03-25T10:53:51;101403.78;;;29.22;63.85
61318;BME280;47201;40.428;-8.436;2023-03-25T10:56:01;101412.53;;;29.38;63.84
61318;BME280;47201;40.428;-8.436;2023-03-25T10:58:02;101408.63;;;29.29;64.83
61318;BME280;47201;40.428;-8.436;2023-03-25T11:00:07;101410.78;;;29.24;64.06
61318;BME280;47201;40.428;-8.436;2023-03-25T11:02:19;101412.22;;;30.19;62.71
61318;BME280;47201;40.428;-8.436;2023-03-25T11:04:41;101415.00;;;28.48;66.19
61318;BME280;47201;40.428;-8.436;2023-03-25T11:07:01;101409.16;;;29.22;65.17
61318;BME280;47201;40.428;-8.436;2023-03-25T11:09:47;101399.66;;;29.03;65.25
61318;BME280;47201;40.428;-8.436;2023-03-25T11:11:52;101406.53;;;30.11;63.12
61318;BME280;47201;40.428;-8.436;2023-03-25T11:13:55;101403.09;;;28.65;66.79
61318;BME280;47201;40.428;-8.436;2023-03-25T11:16:14;101402.06;;;27.98;67.80
61318;BME280;47201;40.428;-8.436;2023-03-25T11:18:34;101390.97;;;27.61;68.58
61318;BME280;47201;40.428;-8.436;2023-03-25T11:20:39;101389.31;;;26.85;70.67
61318;BME280;47201;40.428;-8.436;2023-03-25T11:25:24;101376.78;;;24.89;74.75
61318;BME280;47201;40.428;-8.436;2023-03-25T11:27:45;101366.38;;;24.28;75.51
61318;BME280;47201;40.428;-8.436;2023-03-25T11:30:05;101361.88;;;24.29;76.96
61318;BME280;47201;40.428;-8.436;2023-03-25T11:32:34;101372.56;;;24.11;76.38
61318;BME280;47201;40.428;-8.436;2023-03-25T11:34:36;101363.75;;;24.63;76.20
61318;BME280;47201;40.428;-8.436;2023-03-25T11:38:56;101367.44;;;26.14;71.74
61318;BME280;47201;40.428;-8.436;2023-03-25T11:41:16;101370.91;;;26.16;71.62
61318;BME280;47201;40.428;-8.436;2023-03-25T11:43:37;101362.09;;;26.60;71.10
61318;BME280;47201;40.428;-8.436;2023-03-25T11:45:38;101361.47;;;26.71;70.67
61318;BME280;47201;40.428;-8.436;2023-03-25T11:47:39;101369.41;;;26.42;70.68
61318;BME280;47201;40.428;-8.436;2023-03-25T11:49:41;101365.84;;;25.94;72.55
61318;BME280;47201;40.428;-8.436;2023-03-25T11:51:41;101352.59;;;25.08;73.96
61318;BME280;47201;40.428;-8.436;2023-03-25T11:53:43;101355.28;;;25.08;74.08
61318;BME280;47201;40.428;-8.436;2023-03-25T11:56:07;101347.84;;;24.79;74.20
61318;BME280;47201;40.428;-8.436;2023-03-25T11:58:29;101348.88;;;25.45;71.98
61318;BME280;47201;40.428;-8.436;2023-03-25T12:00:51;101339.94;;;25.78;71.62
61318;BME280;47201;40.428;-8.436;2023-03-25T12:03:03;101342.09;;;25.88;70.10
61318;BME280;47201;40.428;-8.436;2023-03-25T12:07:12;101330.31;;;27.14;69.00
61318;BME280;47201;40.428;-8.436;2023-03-25T12:09:14;101332.53;;;28.21;66.66
61318;BME280;47201;40.428;-8.436;2023-03-25T12:14:13;101334.97;;;27.55;67.27
61318;BME280;47201;40.428;-8.436;2023-03-25T12:19:14;101330.25;;;27.44;68.15